createdAt,value
2022-09-04T00:00:40.453Z,0.00
2022-09-04T00:01:45.014Z,0.00
2022-09-04T00:02:41.407Z,0.00
2022-09-04T00:03:40.425Z,0.00
2022-09-04T00:04:40.501Z,0.00
2022-09-04T00:05:40.366Z,0.00
2022-09-04T00:06:40.673Z,0.00
2022-09-04T00:07:40.330Z,0.00
2022-09-04T00:08:40.335Z,0.00
2022-09-04T00:09:40.317Z,0.00
2022-09-04T00:10:40.307Z,0.00
2022-09-04T00:11:40.286Z,0.00
2022-09-04T00:12:40.587Z,0.00
2022-09-04T00:13:40.278Z,0.00
2022-09-04T00:14:40.288Z,0.00
2022-09-04T00:15:40.235Z,0.00
2022-09-04T00:16:40.243Z,0.00
2022-09-04T00:17:40.228Z,0.00
2022-09-04T00:18:40.220Z,0.00
2022-09-04T00:19:40.202Z,0.00
2022-09-04T00:20:40.514Z,0.00
2022-09-04T00:21:40.167Z,0.00
2022-09-04T00:22:40.171Z,0.00
2022-09-04T00:23:40.139Z,0.00
2022-09-04T00:24:40.136Z,0.00
2022-09-04T00:25:40.139Z,0.00
2022-09-04T00:26:40.112Z,0.00
2022-09-04T00:27:40.131Z,0.00
2022-09-04T00:28:40.089Z,0.00
2022-09-04T00:29:40.092Z,0.00
2022-09-04T00:30:40.107Z,0.00
2022-09-04T00:31:40.041Z,0.00
2022-09-04T00:32:40.272Z,0.00
2022-09-04T00:33:40.025Z,0.00
2022-09-04T00:34:40.055Z,0.00
2022-09-04T00:35:40.024Z,0.00
2022-09-04T00:36:40.005Z,0.00
2022-09-04T00:37:39.982Z,0.00
2022-09-04T00:38:40.299Z,0.00
2022-09-04T00:39:40.060Z,0.00
2022-09-04T00:40:39.943Z,0.00
2022-09-04T00:41:39.955Z,0.00
2022-09-04T00:42:39.915Z,0.00
2022-09-04T00:43:40.218Z,0.00
2022-09-04T00:44:39.918Z,0.00
2022-09-04T00:45:39.944Z,0.00
2022-09-04T00:46:39.894Z,0.00
2022-09-04T00:47:39.878Z,0.00
2022-09-04T00:48:40.167Z,0.00
2022-09-04T00:49:39.858Z,0.00
2022-09-04T00:50:39.841Z,0.00
2022-09-04T00:51:39.817Z,0.00
2022-09-04T00:52:39.823Z,0.00
2022-09-04T00:53:39.796Z,0.00
2022-09-04T00:54:40.073Z,0.00
2022-09-04T00:55:39.781Z,0.00
2022-09-04T00:56:39.772Z,0.00
2022-09-04T00:57:39.762Z,0.00
2022-09-04T00:58:39.729Z,0.00
2022-09-04T00:59:39.745Z,0.00
2022-09-04T01:00:39.931Z,0.00
2022-09-04T01:01:39.750Z,0.00
2022-09-04T01:02:39.691Z,0.00
2022-09-04T01:03:39.680Z,0.00
2022-09-04T01:04:39.661Z,0.00
2022-09-04T01:05:39.958Z,0.00
2022-09-04T01:06:39.658Z,0.00
2022-09-04T01:07:39.646Z,0.00
2022-09-04T01:08:39.613Z,0.00
2022-09-04T01:09:39.603Z,0.00
2022-09-04T01:10:39.614Z,0.00
2022-09-04T01:11:39.896Z,0.00
2022-09-04T01:12:39.574Z,0.00
2022-09-04T01:13:39.576Z,0.00
2022-09-04T01:14:39.546Z,0.00
2022-09-04T01:15:39.548Z,0.00
2022-09-04T01:16:39.956Z,0.00
2022-09-04T01:17:39.515Z,0.00
2022-09-04T01:18:39.496Z,0.00
2022-09-04T01:19:39.494Z,0.00
2022-09-04T01:20:39.493Z,0.00
2022-09-04T01:21:39.489Z,0.00
2022-09-04T01:22:39.715Z,0.00
2022-09-04T01:23:39.448Z,0.00
2022-09-04T01:24:39.451Z,0.00
2022-09-04T01:25:39.429Z,0.00
2022-09-04T01:26:39.402Z,0.00
2022-09-04T01:27:39.413Z,0.00
2022-09-04T01:28:39.622Z,0.00
2022-09-04T01:29:39.390Z,0.00
2022-09-04T01:30:39.377Z,0.00
2022-09-04T01:31:39.376Z,0.00
2022-09-04T01:32:39.345Z,0.00
2022-09-04T01:33:39.345Z,0.00
2022-09-04T01:34:39.636Z,0.00
2022-09-04T01:35:46.353Z,0.00
2022-09-04T01:36:39.290Z,0.00
2022-09-04T01:37:39.290Z,0.00
2022-09-04T01:38:39.282Z,0.00
2022-09-04T01:39:39.372Z,0.00
2022-09-04T01:40:39.591Z,0.00
2022-09-04T01:41:39.230Z,0.00
2022-09-04T01:42:39.225Z,0.00
2022-09-04T01:43:39.227Z,0.00
2022-09-04T01:44:39.193Z,0.00
2022-09-04T01:45:39.475Z,0.00
2022-09-04T01:46:39.189Z,0.00
2022-09-04T01:47:39.162Z,0.00
2022-09-04T01:48:39.169Z,0.00
2022-09-04T01:49:39.142Z,0.00
2022-09-04T01:50:39.398Z,0.00
2022-09-04T01:51:39.115Z,0.00
2022-09-04T01:52:39.427Z,0.00
2022-09-04T01:53:39.086Z,0.00
2022-09-04T01:54:39.076Z,0.00
2022-09-04T01:55:39.067Z,0.00
2022-09-04T01:56:39.057Z,0.00
2022-09-04T01:57:39.262Z,0.00
2022-09-04T01:58:39.041Z,0.00
2022-09-04T01:59:39.017Z,0.00
2022-09-04T02:00:39.008Z,0.00
2022-09-04T02:01:39.260Z,0.00
2022-09-04T02:02:39.052Z,0.00
2022-09-04T02:03:39.003Z,0.00
2022-09-04T02:04:38.961Z,0.00
2022-09-04T02:05:38.963Z,0.00
2022-09-04T02:06:38.929Z,0.00
2022-09-04T02:07:39.251Z,0.00
2022-09-04T02:08:38.909Z,0.00
2022-09-04T02:09:38.900Z,0.00
2022-09-04T02:10:38.888Z,0.00
2022-09-04T02:11:38.881Z,0.00
2022-09-04T02:12:38.863Z,0.00
2022-09-04T02:13:39.124Z,0.00
2022-09-04T02:14:38.841Z,0.00
2022-09-04T02:15:38.831Z,0.00
2022-09-04T02:16:38.891Z,0.00
2022-09-04T02:17:38.813Z,0.00
2022-09-04T02:18:39.053Z,0.00
2022-09-04T02:19:39.096Z,0.00
2022-09-04T02:20:38.786Z,0.00
2022-09-04T02:21:38.763Z,0.00
2022-09-04T02:22:38.767Z,0.00
2022-09-04T02:23:38.754Z,0.00
2022-09-04T02:24:38.985Z,0.00
2022-09-04T02:25:38.716Z,0.00
2022-09-04T02:26:38.719Z,0.00
2022-09-04T02:27:38.721Z,0.00
2022-09-04T02:28:38.676Z,0.00
2022-09-04T02:29:38.683Z,0.00
2022-09-04T02:30:38.966Z,0.00
2022-09-04T02:31:38.774Z,0.00
2022-09-04T02:32:38.629Z,0.00
2022-09-04T02:33:38.628Z,0.00
2022-09-04T02:34:38.608Z,0.00
2022-09-04T02:35:38.600Z,0.00
2022-09-04T02:36:38.914Z,0.00
2022-09-04T02:37:38.589Z,0.00
2022-09-04T02:38:38.572Z,0.00
2022-09-04T02:39:38.614Z,0.00
2022-09-04T02:40:38.560Z,0.00
2022-09-04T02:41:38.545Z,0.00
2022-09-04T02:42:38.513Z,0.00
2022-09-04T02:43:38.511Z,0.00
2022-09-04T02:44:38.491Z,0.00
2022-09-04T02:45:38.713Z,0.00
2022-09-04T02:46:43.007Z,0.00
2022-09-04T02:47:38.477Z,0.00
2022-09-04T02:48:38.695Z,0.00
2022-09-04T02:49:38.453Z,0.00
2022-09-04T02:50:38.736Z,0.00
2022-09-04T02:51:38.414Z,0.00
2022-09-04T02:52:38.394Z,0.00
2022-09-04T02:53:38.406Z,0.00
2022-09-04T02:54:38.419Z,0.00
2022-09-04T02:55:38.671Z,0.00
2022-09-04T02:56:38.346Z,0.00
2022-09-04T02:57:38.359Z,0.00
2022-09-04T02:58:38.339Z,0.00
2022-09-04T02:59:38.330Z,0.00
2022-09-04T03:00:38.338Z,0.00
2022-09-04T03:01:38.600Z,0.00
2022-09-04T03:02:38.277Z,0.00
2022-09-04T03:03:38.288Z,0.00
2022-09-04T03:04:38.590Z,0.00
2022-09-04T03:05:38.249Z,0.00
2022-09-04T03:06:38.499Z,0.00
2022-09-04T03:07:38.242Z,0.00
2022-09-04T03:08:38.226Z,0.00
2022-09-04T03:09:38.213Z,0.00
2022-09-04T03:10:38.188Z,0.00
2022-09-04T03:11:38.401Z,0.00
2022-09-04T03:12:38.175Z,0.00
2022-09-04T03:13:38.163Z,0.00
2022-09-04T03:14:38.154Z,0.00
2022-09-04T03:15:38.145Z,0.00
2022-09-04T03:16:38.155Z,0.00
2022-09-04T03:17:38.422Z,0.00
2022-09-04T03:18:38.093Z,0.00
2022-09-04T03:19:38.104Z,0.00
2022-09-04T03:20:38.079Z,0.00
2022-09-04T03:21:38.096Z,0.00
2022-09-04T03:22:38.302Z,0.00
2022-09-04T03:23:38.043Z,0.00
2022-09-04T03:24:38.045Z,0.00
2022-09-04T03:25:38.028Z,0.00
2022-09-04T03:26:38.005Z,0.00
2022-09-04T03:27:38.308Z,0.00
2022-09-04T03:28:38.294Z,0.00
2022-09-04T03:29:37.988Z,0.00
2022-09-04T03:30:37.978Z,0.00
2022-09-04T03:31:37.994Z,0.00
2022-09-04T03:32:37.936Z,0.00
2022-09-04T03:33:37.927Z,0.00
2022-09-04T03:34:38.217Z,0.00
2022-09-04T03:35:37.899Z,0.00
2022-09-04T03:36:37.887Z,0.00
2022-09-04T03:37:38.210Z,0.00
2022-09-04T03:38:37.868Z,0.00
2022-09-04T03:39:37.920Z,0.00
2022-09-04T03:40:38.164Z,0.00
2022-09-04T03:41:37.853Z,0.00
2022-09-04T03:42:38.091Z,0.00
2022-09-04T03:43:37.826Z,0.00
2022-09-04T03:44:37.813Z,0.00
2022-09-04T03:45:37.803Z,0.00
2022-09-04T03:46:37.838Z,0.00
2022-09-04T03:47:38.094Z,0.00
2022-09-04T03:48:37.752Z,0.00
2022-09-04T03:49:37.764Z,0.00
2022-09-04T03:50:37.731Z,0.00
2022-09-04T03:51:37.747Z,0.00
2022-09-04T03:52:38.022Z,0.00
2022-09-04T03:53:37.716Z,0.00
2022-09-04T03:54:37.696Z,0.00
2022-09-04T03:55:37.687Z,0.00
2022-09-04T03:56:37.679Z,0.00
2022-09-04T03:57:37.866Z,0.00
2022-09-04T03:58:37.650Z,0.00
2022-09-04T03:59:38.130Z,0.00
2022-09-04T04:00:37.866Z,0.00
2022-09-04T04:01:37.605Z,0.00
2022-09-04T04:02:37.676Z,0.00
2022-09-04T04:03:37.598Z,0.00
2022-09-04T04:04:37.566Z,0.00
2022-09-04T04:05:37.796Z,0.00
2022-09-04T04:06:37.567Z,0.00
2022-09-04T04:07:37.550Z,0.00
2022-09-04T04:08:37.527Z,0.00
2022-09-04T04:09:37.518Z,0.00
2022-09-04T04:10:37.543Z,0.00
2022-09-04T04:11:43.234Z,0.00
2022-09-04T04:12:38.494Z,0.00
2022-09-04T04:13:37.479Z,0.00
2022-09-04T04:14:37.820Z,0.00
2022-09-04T04:15:37.460Z,0.00
2022-09-04T04:16:37.706Z,0.00
2022-09-04T04:17:37.421Z,0.00
2022-09-04T04:18:37.410Z,0.00
2022-09-04T04:19:37.400Z,0.00
2022-09-04T04:20:37.382Z,0.00
2022-09-04T04:21:37.393Z,0.00
2022-09-04T04:22:37.704Z,0.00
2022-09-04T04:23:37.353Z,0.00
2022-09-04T04:24:37.357Z,4.00
2022-09-04T04:25:37.348Z,0.00
2022-09-04T04:26:37.314Z,0.00
2022-09-04T04:27:37.315Z,4.00
2022-09-04T04:28:37.494Z,0.00
2022-09-04T04:29:37.594Z,4.00
2022-09-04T04:30:37.286Z,0.00
2022-09-04T04:31:37.553Z,4.00
2022-09-04T04:32:37.245Z,4.00
2022-09-04T04:33:37.244Z,4.00
2022-09-04T04:34:37.239Z,8.00
2022-09-04T04:35:37.246Z,8.00
2022-09-04T04:36:37.538Z,8.00
2022-09-04T04:37:37.196Z,8.00
2022-09-04T04:38:37.179Z,8.00
2022-09-04T04:39:37.222Z,8.00
2022-09-04T04:40:37.156Z,12.00
2022-09-04T04:41:37.161Z,12.00
2022-09-04T04:42:37.459Z,16.00
2022-09-04T04:43:37.140Z,16.00
2022-09-04T04:44:37.129Z,20.00
2022-09-04T04:45:37.121Z,24.00
2022-09-04T04:46:37.337Z,24.00
2022-09-04T04:47:37.093Z,28.00
2022-09-04T04:48:37.069Z,28.00
2022-09-04T04:49:37.058Z,32.00
2022-09-04T04:50:37.039Z,32.00
2022-09-04T04:51:37.052Z,36.00
2022-09-04T04:52:37.334Z,40.00
2022-09-04T04:53:37.023Z,44.00
2022-09-04T04:54:37.000Z,44.00
2022-09-04T04:55:36.981Z,48.00
2022-09-04T04:56:36.981Z,52.00
2022-09-04T04:57:36.976Z,56.00
2022-09-04T04:58:37.266Z,60.00
2022-09-04T04:59:36.942Z,64.00
2022-09-04T05:00:36.933Z,68.00
2022-09-04T05:01:37.003Z,72.00
2022-09-04T05:02:36.964Z,76.00
2022-09-04T05:03:37.236Z,80.00
2022-09-04T05:04:36.889Z,88.00
2022-09-04T05:05:36.886Z,92.00
2022-09-04T05:06:36.868Z,96.00
2022-09-04T05:07:36.859Z,96.00
2022-09-04T05:08:36.836Z,104.00
2022-09-04T05:09:36.847Z,108.00
2022-09-04T05:10:37.026Z,112.00
2022-09-04T05:11:36.805Z,116.00
2022-09-04T05:12:36.793Z,120.00
2022-09-04T05:13:36.790Z,124.00
2022-09-04T05:14:36.770Z,128.00
2022-09-04T05:15:52.952Z,132.00
2022-09-04T05:16:38.086Z,140.00
2022-09-04T05:17:36.751Z,144.00
2022-09-04T05:18:36.718Z,148.00
2022-09-04T05:19:36.709Z,152.00
2022-09-04T05:20:36.714Z,156.00
2022-09-04T05:21:36.956Z,164.00
2022-09-04T05:22:37.002Z,168.00
2022-09-04T05:23:36.685Z,172.00
2022-09-04T05:24:36.673Z,176.00
2022-09-04T05:25:36.662Z,180.00
2022-09-04T05:26:36.632Z,188.00
2022-09-04T05:27:36.843Z,192.00
2022-09-04T05:28:36.609Z,192.00
2022-09-04T05:29:36.606Z,196.00
2022-09-04T05:30:36.581Z,204.00
2022-09-04T05:31:37.715Z,212.00
2022-09-04T05:32:36.576Z,216.00
2022-09-04T05:33:36.807Z,224.00
2022-09-04T05:34:36.540Z,220.00
2022-09-04T05:35:36.525Z,224.00
2022-09-04T05:36:36.523Z,228.00
2022-09-04T05:37:36.503Z,232.00
2022-09-04T05:38:36.514Z,236.00
2022-09-04T05:39:36.762Z,240.00
2022-09-04T05:40:36.480Z,252.00
2022-09-04T05:41:36.457Z,248.00
2022-09-04T05:42:36.467Z,256.00
2022-09-04T05:43:36.437Z,260.00
2022-09-04T05:44:36.691Z,264.00
2022-09-04T05:45:36.429Z,272.00
2022-09-04T05:46:36.477Z,272.00
2022-09-04T05:47:36.395Z,280.00
2022-09-04T05:48:36.398Z,280.00
2022-09-04T05:49:36.367Z,284.00
2022-09-04T05:50:36.390Z,292.00
2022-09-04T05:51:36.478Z,296.00
2022-09-04T05:52:36.338Z,300.00
2022-09-04T05:53:36.331Z,304.00
2022-09-04T05:54:36.322Z,312.00
2022-09-04T05:55:36.312Z,316.00
2022-09-04T05:56:36.508Z,316.00
2022-09-04T05:57:36.293Z,324.00
2022-09-04T05:58:36.271Z,328.00
2022-09-04T05:59:36.249Z,328.00
2022-09-04T06:00:36.254Z,332.00
2022-09-04T06:01:36.617Z,332.00
2022-09-04T06:02:36.258Z,332.00
2022-09-04T06:03:36.202Z,340.00
2022-09-04T06:04:36.205Z,344.00
2022-09-04T06:05:36.182Z,348.00
2022-09-04T06:06:36.173Z,348.00
2022-09-04T06:07:36.195Z,352.00
2022-09-04T06:08:36.186Z,356.00
2022-09-04T06:09:36.147Z,360.00
2022-09-04T06:10:36.146Z,364.00
2022-09-04T06:11:36.127Z,360.00
2022-09-04T06:12:36.111Z,356.00
2022-09-04T06:13:36.108Z,360.00
2022-09-04T06:14:38.028Z,360.00
2022-09-04T06:15:36.136Z,364.00
2022-09-04T06:16:36.069Z,364.00
2022-09-04T06:17:36.047Z,368.00
2022-09-04T06:18:36.047Z,368.00
2022-09-04T06:19:36.319Z,372.00
2022-09-04T06:20:36.337Z,368.00
2022-09-04T06:21:36.006Z,368.00
2022-09-04T06:22:35.997Z,372.00
2022-09-04T06:23:35.983Z,376.00
2022-09-04T06:24:36.015Z,384.00
2022-09-04T06:25:35.967Z,380.00
2022-09-04T06:26:36.273Z,384.00
2022-09-04T06:27:35.928Z,380.00
2022-09-04T06:28:35.920Z,384.00
2022-09-04T06:29:35.915Z,384.00
2022-09-04T06:30:35.914Z,380.00
2022-09-04T06:31:36.143Z,388.00
2022-09-04T06:32:35.903Z,384.00
2022-09-04T06:33:35.883Z,388.00
2022-09-04T06:34:35.851Z,380.00
2022-09-04T06:35:35.852Z,384.00
2022-09-04T06:36:36.150Z,384.00
2022-09-04T06:37:35.824Z,396.00
2022-09-04T06:38:35.815Z,388.00
2022-09-04T06:39:35.846Z,400.00
2022-09-04T06:40:35.782Z,408.00
2022-09-04T06:41:35.785Z,404.00
2022-09-04T06:42:36.106Z,404.00
2022-09-04T06:43:36.529Z,404.00
2022-09-04T06:44:35.747Z,400.00
2022-09-04T06:45:35.724Z,404.00
2022-09-04T06:46:35.795Z,408.00
2022-09-04T06:47:35.708Z,404.00
2022-09-04T06:48:36.005Z,404.00
2022-09-04T06:49:35.689Z,416.00
2022-09-04T06:50:35.665Z,404.00
2022-09-04T06:51:35.668Z,416.00
2022-09-04T06:52:35.658Z,428.00
2022-09-04T06:53:35.626Z,420.00
2022-09-04T06:54:35.931Z,436.00
2022-09-04T06:55:35.599Z,444.00
2022-09-04T06:56:35.597Z,444.00
2022-09-04T06:57:35.578Z,452.00
2022-09-04T06:58:35.910Z,440.00
2022-09-04T06:59:35.571Z,432.00
2022-09-04T07:00:35.550Z,440.00
2022-09-04T07:01:35.643Z,428.00
2022-09-04T07:02:35.616Z,436.00
2022-09-04T07:03:35.511Z,428.00
2022-09-04T07:04:35.811Z,420.00
2022-09-04T07:05:35.502Z,444.00
2022-09-04T07:06:35.479Z,452.00
2022-09-04T07:07:35.475Z,464.00
2022-09-04T07:08:35.474Z,452.00
2022-09-04T07:09:35.433Z,440.00
2022-09-04T07:10:35.763Z,468.00
2022-09-04T07:11:35.428Z,472.00
2022-09-04T07:12:35.402Z,488.00
2022-09-04T07:13:35.396Z,504.00
2022-09-04T07:14:35.392Z,532.00
2022-09-04T07:15:35.429Z,536.00
2022-09-04T07:16:35.597Z,532.00
2022-09-04T07:17:35.345Z,524.00
2022-09-04T07:18:35.335Z,524.00
2022-09-04T07:19:35.326Z,532.00
2022-09-04T07:20:35.316Z,528.00
2022-09-04T07:21:35.565Z,548.00
2022-09-04T07:22:35.297Z,536.00
2022-09-04T07:23:35.290Z,540.00
2022-09-04T07:24:35.287Z,548.00
2022-09-04T07:25:35.258Z,564.00
2022-09-04T07:26:35.558Z,560.00
2022-09-04T07:27:35.241Z,564.00
2022-09-04T07:28:35.232Z,568.00
2022-09-04T07:29:35.211Z,568.00
2022-09-04T07:30:35.524Z,600.00
2022-09-04T07:31:35.219Z,604.00
2022-09-04T07:32:35.191Z,588.00
2022-09-04T07:33:35.159Z,580.00
2022-09-04T07:34:35.151Z,584.00
2022-09-04T07:35:35.359Z,572.00
2022-09-04T07:36:42.180Z,580.00
2022-09-04T07:37:35.132Z,576.00
2022-09-04T07:38:35.125Z,564.00
2022-09-04T07:39:35.129Z,592.00
2022-09-04T07:40:35.099Z,592.00
2022-09-04T07:41:35.376Z,596.00
2022-09-04T07:42:35.079Z,612.00
2022-09-04T07:43:35.062Z,588.00
2022-09-04T07:44:35.037Z,580.00
2022-09-04T07:45:35.017Z,584.00
2022-09-04T07:46:35.359Z,584.00
2022-09-04T07:47:34.998Z,604.00
2022-09-04T07:48:34.988Z,600.00
2022-09-04T07:49:34.979Z,604.00
2022-09-04T07:50:34.982Z,616.00
2022-09-04T07:51:34.950Z,616.00
2022-09-04T07:52:34.973Z,644.00
2022-09-04T07:53:34.929Z,644.00
2022-09-04T07:54:34.920Z,648.00
2022-09-04T07:55:34.934Z,632.00
2022-09-04T07:56:34.915Z,632.00
2022-09-04T07:57:34.896Z,632.00
2022-09-04T07:58:34.892Z,636.00
2022-09-04T07:59:34.874Z,640.00
2022-09-04T08:00:34.866Z,648.00
2022-09-04T08:01:38.283Z,628.00
2022-09-04T08:02:35.868Z,628.00
2022-09-04T08:03:34.829Z,644.00
2022-09-04T08:04:34.854Z,632.00
2022-09-04T08:05:34.795Z,632.00
2022-09-04T08:06:34.815Z,636.00
2022-09-04T08:07:34.791Z,648.00
2022-09-04T08:08:34.769Z,644.00
2022-09-04T08:09:34.747Z,652.00
2022-09-04T08:10:34.736Z,660.00
2022-09-04T08:11:34.739Z,660.00
2022-09-04T08:12:34.737Z,664.00
2022-09-04T08:13:35.029Z,668.00
2022-09-04T08:14:34.701Z,672.00
2022-09-04T08:15:35.451Z,672.00
2022-09-04T08:16:35.712Z,676.00
2022-09-04T08:17:34.931Z,688.00
2022-09-04T08:18:34.675Z,684.00
2022-09-04T08:19:34.649Z,692.00
2022-09-04T08:20:34.634Z,692.00
2022-09-04T08:21:34.621Z,696.00
2022-09-04T08:22:34.591Z,700.00
2022-09-04T08:23:34.614Z,704.00
2022-09-04T08:24:34.587Z,704.00
2022-09-04T08:27:56.848Z,712.00
2022-09-04T08:28:56.526Z,716.00
2022-09-04T08:29:56.506Z,720.00
2022-09-04T08:30:56.565Z,716.00
2022-09-04T08:31:56.487Z,724.00
2022-09-04T08:32:56.792Z,724.00
2022-09-04T08:33:56.470Z,736.00
2022-09-04T08:34:56.456Z,736.00
2022-09-04T08:35:56.457Z,744.00
2022-09-04T08:36:56.450Z,740.00
2022-09-04T08:37:56.432Z,744.00
2022-09-04T08:38:56.450Z,748.00
2022-09-04T08:39:56.455Z,748.00
2022-09-04T08:40:56.389Z,756.00
2022-09-04T08:41:56.370Z,760.00
2022-09-04T08:42:56.383Z,764.00
2022-09-04T08:43:56.684Z,772.00
2022-09-04T08:44:56.355Z,776.00
2022-09-04T08:45:56.382Z,780.00
2022-09-04T08:46:56.318Z,780.00
2022-09-04T08:47:56.302Z,776.00
2022-09-04T08:48:56.617Z,776.00
2022-09-04T08:49:56.556Z,788.00
2022-09-04T08:50:56.273Z,780.00
2022-09-04T08:51:56.253Z,780.00
2022-09-04T08:52:58.670Z,784.00
2022-09-04T08:53:56.248Z,792.00
2022-09-04T08:54:56.239Z,792.00
2022-09-04T08:55:56.547Z,800.00
2022-09-04T08:56:56.218Z,800.00
2022-09-04T08:57:56.195Z,808.00
2022-09-04T08:58:56.190Z,816.00
2022-09-04T08:59:56.181Z,828.00
2022-09-04T09:00:56.221Z,828.00
2022-09-04T09:01:56.147Z,824.00
2022-09-04T09:02:56.173Z,820.00
2022-09-04T09:03:56.148Z,824.00
2022-09-04T09:04:56.124Z,820.00
2022-09-04T09:05:56.312Z,820.00
2022-09-04T09:06:56.090Z,828.00
2022-09-04T09:07:56.092Z,824.00
2022-09-04T09:08:56.126Z,824.00
2022-09-04T09:09:56.065Z,832.00
2022-09-04T09:10:56.062Z,836.00
2022-09-04T09:11:56.064Z,844.00
2022-09-04T09:12:56.035Z,844.00
2022-09-04T09:13:59.838Z,848.00
2022-09-04T09:14:57.022Z,860.00
2022-09-04T09:15:56.037Z,868.00
2022-09-04T09:16:56.103Z,872.00
2022-09-04T09:17:56.045Z,872.00
2022-09-04T09:18:56.015Z,876.00
2022-09-04T09:19:55.953Z,876.00
2022-09-04T09:20:55.948Z,876.00
2022-09-04T09:21:55.919Z,880.00
2022-09-04T09:22:55.941Z,888.00
2022-09-04T09:23:55.924Z,904.00
2022-09-04T09:24:55.884Z,896.00
2022-09-04T09:25:55.868Z,896.00
2022-09-04T09:26:55.857Z,896.00
2022-09-04T09:27:55.850Z,912.00
2022-09-04T09:28:55.879Z,904.00
2022-09-04T09:29:56.117Z,908.00
2022-09-04T09:30:55.845Z,916.00
2022-09-04T09:31:58.431Z,908.00
2022-09-04T09:32:55.800Z,908.00
2022-09-04T09:33:55.805Z,904.00
2022-09-04T09:34:55.830Z,908.00
2022-09-04T09:35:55.792Z,904.00
2022-09-04T09:36:55.862Z,912.00
2022-09-04T09:37:55.745Z,912.00
2022-09-04T09:38:55.754Z,920.00
2022-09-04T09:39:55.757Z,904.00
2022-09-04T09:40:56.075Z,912.00
2022-09-04T09:41:55.699Z,924.00
2022-09-04T09:42:55.675Z,928.00
2022-09-04T09:43:55.664Z,924.00
2022-09-04T09:44:55.985Z,932.00
2022-09-04T09:45:55.668Z,932.00
2022-09-04T09:46:55.638Z,920.00
2022-09-04T09:47:55.658Z,928.00
2022-09-04T09:48:55.618Z,932.00
2022-09-04T09:49:55.609Z,932.00
2022-09-04T09:50:55.583Z,936.00
2022-09-04T09:51:55.588Z,932.00
2022-09-04T09:52:55.848Z,936.00
2022-09-04T09:53:55.548Z,940.00
2022-09-04T09:54:55.559Z,932.00
2022-09-04T09:55:55.527Z,944.00
2022-09-04T09:56:55.532Z,948.00
2022-09-04T09:57:55.523Z,960.00
2022-09-04T09:58:55.689Z,964.00
2022-09-04T09:59:55.482Z,972.00
2022-09-04T10:00:55.481Z,968.00
2022-09-04T10:01:55.474Z,976.00
2022-09-04T10:02:55.442Z,976.00
2022-09-04T10:03:55.451Z,980.00
2022-09-04T10:04:55.422Z,988.00
2022-09-04T10:05:55.411Z,992.00
2022-09-04T10:06:55.716Z,996.00
2022-09-04T10:07:55.406Z,1012.00
2022-09-04T10:08:55.385Z,1068.00
2022-09-04T10:09:55.381Z,1072.00
2022-09-04T10:10:55.373Z,1036.00
2022-09-04T10:11:55.356Z,1040.00
2022-09-04T10:12:55.590Z,1032.00
2022-09-04T10:13:55.339Z,1064.00
2022-09-04T10:14:55.319Z,1052.00
2022-09-04T10:15:55.338Z,1044.00
2022-09-04T10:16:55.390Z,1044.00
2022-09-04T10:17:55.277Z,724.00
2022-09-04T10:18:55.278Z,664.00
2022-09-04T10:19:55.271Z,560.00
2022-09-04T10:20:55.263Z,548.00
2022-09-04T10:21:55.454Z,560.00
2022-09-04T10:22:55.232Z,568.00
2022-09-04T10:23:55.223Z,584.00
2022-09-04T10:24:55.212Z,600.00
2022-09-04T10:25:55.190Z,624.00
2022-09-04T10:26:55.480Z,888.00
2022-09-04T10:27:55.168Z,1052.00
2022-09-04T10:28:55.162Z,1116.00
2022-09-04T10:29:55.155Z,720.00
2022-09-04T10:30:55.201Z,1012.00
2022-09-04T10:31:55.132Z,1084.00
2022-09-04T10:32:55.377Z,636.00
2022-09-04T10:33:55.115Z,644.00
2022-09-04T10:34:55.099Z,636.00
2022-09-04T10:35:55.098Z,644.00
2022-09-04T10:36:55.074Z,1136.00
2022-09-04T10:37:55.069Z,1144.00
2022-09-04T10:38:55.077Z,1136.00
2022-09-04T10:39:55.088Z,1012.00
2022-09-04T10:40:55.030Z,1100.00
2022-09-04T10:41:55.257Z,660.00
2022-09-04T10:42:54.997Z,640.00
2022-09-04T10:43:55.308Z,628.00
2022-09-04T10:44:54.977Z,620.00
2022-09-04T10:45:55.047Z,624.00
2022-09-04T10:46:54.950Z,632.00
2022-09-04T10:47:55.162Z,632.00
2022-09-04T10:48:54.937Z,628.00
2022-09-04T10:49:54.939Z,616.00
2022-09-04T10:50:55.194Z,624.00
2022-09-04T10:51:54.901Z,628.00
2022-09-04T10:52:54.900Z,636.00
2022-09-04T10:53:54.900Z,648.00
2022-09-04T10:54:54.861Z,656.00
2022-09-04T10:55:54.852Z,684.00
2022-09-04T10:56:54.856Z,948.00
2022-09-04T10:57:54.833Z,832.00
2022-09-04T10:58:54.813Z,824.00
2022-09-04T10:59:58.991Z,664.00
2022-09-04T11:00:54.850Z,672.00
2022-09-04T11:01:54.840Z,688.00
2022-09-04T11:02:54.787Z,696.00
2022-09-04T11:03:54.786Z,696.00
2022-09-04T11:04:54.746Z,712.00
2022-09-04T11:05:54.828Z,1008.00
2022-09-04T11:06:54.740Z,1208.00
2022-09-04T11:07:54.748Z,1224.00
2022-09-04T11:08:54.763Z,1016.00
2022-09-04T11:09:54.750Z,1048.00
2022-09-04T11:10:54.728Z,1300.00
2022-09-04T11:11:54.750Z,1300.00
2022-09-04T11:12:54.673Z,1344.00
2022-09-04T11:13:54.654Z,1288.00
2022-09-04T11:14:54.680Z,1268.00
2022-09-04T11:15:54.674Z,1284.00
2022-09-04T11:16:57.414Z,1320.00
2022-09-04T11:17:54.661Z,1324.00
2022-09-04T11:18:54.603Z,1232.00
2022-09-04T11:19:54.598Z,1376.00
2022-09-04T11:20:54.826Z,1440.00
2022-09-04T11:21:54.774Z,1496.00
2022-09-04T11:22:54.544Z,1492.00
2022-09-04T11:23:55.516Z,1452.00
2022-09-04T11:24:54.527Z,1432.00
2022-09-04T11:25:54.505Z,1480.00
2022-09-04T11:26:54.495Z,1448.00
2022-09-04T11:27:54.709Z,1456.00
2022-09-04T11:28:54.474Z,1444.00
2022-09-04T11:29:54.475Z,1472.00
2022-09-04T11:30:54.472Z,1376.00
2022-09-04T11:31:54.523Z,1352.00
2022-09-04T11:32:54.428Z,1196.00
2022-09-04T11:33:54.476Z,1400.00
2022-09-04T11:34:54.420Z,1432.00
2022-09-04T11:35:54.414Z,900.00
2022-09-04T11:36:54.605Z,900.00
2022-09-04T11:37:57.508Z,900.00
2022-09-04T11:38:54.375Z,944.00
2022-09-04T11:39:54.412Z,968.00
2022-09-04T11:40:54.347Z,1060.00
2022-09-04T11:41:54.322Z,1112.00
2022-09-04T11:42:54.522Z,1476.00
2022-09-04T11:43:54.315Z,1252.00
2022-09-04T11:44:54.305Z,1308.00
2022-09-04T11:45:54.338Z,1444.00
2022-09-04T11:46:54.264Z,1480.00
2022-09-04T11:47:54.263Z,1080.00
2022-09-04T11:48:54.279Z,1132.00
2022-09-04T11:49:54.248Z,1200.00
2022-09-04T11:50:54.238Z,1212.00
2022-09-04T11:51:54.234Z,1204.00
2022-09-04T11:52:55.044Z,1232.00
2022-09-04T11:53:54.206Z,1176.00
2022-09-04T11:54:54.192Z,1272.00
2022-09-04T11:55:54.478Z,1344.00
2022-09-04T11:56:54.160Z,1372.00
2022-09-04T11:57:54.141Z,1380.00
2022-09-04T11:58:54.144Z,1388.00
2022-09-04T11:59:54.110Z,1368.00
2022-09-04T12:00:54.375Z,1336.00
2022-09-04T12:01:54.126Z,1228.00
2022-09-04T12:02:54.094Z,1204.00
2022-09-04T12:03:54.374Z,1184.00
2022-09-04T12:04:54.073Z,1108.00
2022-09-04T12:05:54.053Z,1176.00
2022-09-04T12:06:54.378Z,988.00
2022-09-04T12:07:54.023Z,976.00
2022-09-04T12:08:54.025Z,996.00
2022-09-04T12:09:54.029Z,1024.00
2022-09-04T12:10:53.994Z,1260.00
2022-09-04T12:11:53.994Z,1652.00
2022-09-04T12:12:53.998Z,1256.00
2022-09-04T12:13:54.285Z,1224.00
2022-09-04T12:14:53.944Z,1188.00
2022-09-04T12:15:53.949Z,1136.00
2022-09-04T12:16:53.987Z,1116.00
2022-09-04T12:17:53.930Z,1136.00
2022-09-04T12:18:53.912Z,1164.00
2022-09-04T12:19:54.097Z,1236.00
2022-09-04T12:20:53.879Z,1308.00
2022-09-04T12:21:53.870Z,1260.00
2022-09-04T12:22:53.874Z,1528.00
2022-09-04T12:23:53.859Z,1584.00
2022-09-04T12:24:54.050Z,1408.00
2022-09-04T12:25:53.853Z,1588.00
2022-09-04T12:26:57.051Z,1452.00
2022-09-04T12:27:54.802Z,1220.00
2022-09-04T12:28:53.792Z,1084.00
2022-09-04T12:29:53.796Z,1036.00
2022-09-04T12:30:53.983Z,1168.00
2022-09-04T12:31:53.844Z,1504.00
2022-09-04T12:32:53.744Z,1492.00
2022-09-04T12:33:53.747Z,1592.00
2022-09-04T12:34:53.725Z,1544.00
2022-09-04T12:35:53.739Z,1076.00
2022-09-04T12:36:53.938Z,1148.00
2022-09-04T12:37:53.694Z,1372.00
2022-09-04T12:38:53.690Z,1364.00
2022-09-04T12:39:53.802Z,1420.00
2022-09-04T12:40:53.657Z,1536.00
2022-09-04T12:41:53.860Z,1576.00
2022-09-04T12:42:53.649Z,1632.00
2022-09-04T12:43:53.626Z,1668.00
2022-09-04T12:44:53.609Z,1568.00
2022-09-04T12:45:53.646Z,1472.00